sensor_id;sensor_type;location;lat;lon;timestamp;temperature;humidity
22742;DHT22;11538;48.884;8.696;2022-09-09T00:04:48;18.00;99.90
22742;DHT22;11538;48.884;8.696;2022-09-09T00:07:47;18.00;99.90
22742;DHT22;11538;48.884;8.696;2022-09-09T00:10:34;17.90;99.90
22742;DHT22;11538;48.884;8.696;2022-09-09T00:13:26;18.00;99.90
22742;DHT22;11538;48.884;8.696;2022-09-09T00:16:08;17.90;99.90
22742;DHT22;11538;48.884;8.696;2022-09-09T00:19:29;18.00;99.90
22742;DHT22;11538;48.884;8.696;2022-09-09T00:22:16;18.00;99.90
22742;DHT22;11538;48.884;8.696;2022-09-09T00:24:49;18.00;99.90
22742;DHT22;11538;48.884;8.696;2022-09-09T00:27:51;18.10;99.90
22742;DHT22;11538;48.884;8.696;2022-09-09T00:30:18;18.20;99.90
22742;DHT22;11538;48.884;8.696;2022-09-09T00:32:55;18.20;99.90
22742;DHT22;11538;48.884;8.696;2022-09-09T00:35:38;18.20;99.90
22742;DHT22;11538;48.884;8.696;2022-09-09T00:38:33;18.30;99.90
22742;DHT22;11538;48.884;8.696;2022-09-09T00:41:11;18.20;99.90
22742;DHT22;11538;48.884;8.696;2022-09-09T00:44:18;18.20;99.90
22742;DHT22;11538;48.884;8.696;2022-09-09T00:47:32;18.10;99.90
22742;DHT22;11538;48.884;8.696;2022-09-09T00:56:38;17.80;99.90
22742;DHT22;11538;48.884;8.696;2022-09-09T00:59:28;17.80;99.90
22742;DHT22;11538;48.884;8.696;2022-09-09T01:02:35;17.80;99.90
22742;DHT22;11538;48.884;8.696;2022-09-09T01:07:58;17.80;99.90
22742;DHT22;11538;48.884;8.696;2022-09-09T01:10:36;17.90;99.90
22742;DHT22;11538;48.884;8.696;2022-09-09T01:13:24;17.80;99.90
22742;DHT22;11538;48.884;8.696;2022-09-09T01:15:53;17.80;99.90
22742;DHT22;11538;48.884;8.696;2022-09-09T01:18:35;17.80;99.90
22742;DHT22;11538;48.884;8.696;2022-09-09T01:24:40;17.80;99.90
22742;DHT22;11538;48.884;8.696;2022-09-09T01:27:36;17.80;99.90
22742;DHT22;11538;48.884;8.696;2022-09-09T01:30:11;17.70;99.90
22742;DHT22;11538;48.884;8.696;2022-09-09T01:32:46;17.70;99.90
22742;DHT22;11538;48.884;8.696;2022-09-09T01:35:38;17.70;99.90
22742;DHT22;11538;48.884;8.696;2022-09-09T01:38:12;17.80;99.90
22742;DHT22;11538;48.884;8.696;2022-09-09T01:40:40;17.80;99.90
22742;DHT22;11538;48.884;8.696;2022-09-09T01:43:07;17.80;99.90
22742;DHT22;11538;48.884;8.696;2022-09-09T01:45:34;17.80;99.90
22742;DHT22;11538;48.884;8.696;2022-09-09T01:48:02;17.70;99.90
22742;DHT22;11538;48.884;8.696;2022-09-09T01:50:29;17.60;99.90
22742;DHT22;11538;48.884;8.696;2022-09-09T01:52:58;17.60;99.90
22742;DHT22;11538;48.884;8.696;2022-09-09T01:55:32;17.60;99.90
22742;DHT22;11538;48.884;8.696;2022-09-09T01:58:20;17.60;99.90
22742;DHT22;11538;48.884;8.696;2022-09-09T02:01:15;17.70;99.90
22742;DHT22;11538;48.884;8.696;2022-09-09T02:03:54;17.70;99.90
22742;DHT22;11538;48.884;8.696;2022-09-09T02:06:38;17.70;99.90
22742;DHT22;11538;48.884;8.696;2022-09-09T02:09:08;17.70;99.90
22742;DHT22;11538;48.884;8.696;2022-09-09T02:11:38;17.80;99.90
22742;DHT22;11538;48.884;8.696;2022-09-09T02:14:14;17.80;99.90
22742;DHT22;11538;48.884;8.696;2022-09-09T02:16:55;17.80;99.90
22742;DHT22;11538;48.884;8.696;2022-09-09T02:19:29;17.80;99.90
22742;DHT22;11538;48.884;8.696;2022-09-09T02:22:01;17.80;99.90
22742;DHT22;11538;48.884;8.696;2022-09-09T02:24:32;17.80;99.90
22742;DHT22;11538;48.884;8.696;2022-09-09T02:27:04;17.80;99.90
22742;DHT22;11538;48.884;8.696;2022-09-09T02:29:40;17.80;99.90
22742;DHT22;11538;48.884;8.696;2022-09-09T02:32:12;17.70;99.90
22742;DHT22;11538;48.884;8.696;2022-09-09T02:34:45;17.60;99.90
22742;DHT22;11538;48.884;8.696;2022-09-09T02:37:18;17.60;99.90
22742;DHT22;11538;48.884;8.696;2022-09-09T02:39:49;17.60;99.90
22742;DHT22;11538;48.884;8.696;2022-09-09T02:42:16;17.60;99.90
22742;DHT22;11538;48.884;8.696;2022-09-09T02:44:44;17.60;99.90
22742;DHT22;11538;48.884;8.696;2022-09-09T02:50:15;17.60;99.90
22742;DHT22;11538;48.884;8.696;2022-09-09T02:55:54;17.60;99.90
22742;DHT22;11538;48.884;8.696;2022-09-09T02:58:26;17.50;99.90
22742;DHT22;11538;48.884;8.696;2022-09-09T03:00:55;17.50;99.90
22742;DHT22;11538;48.884;8.696;2022-09-09T03:03:24;17.40;99.90
22742;DHT22;11538;48.884;8.696;2022-09-09T03:05:51;17.50;99.90
22742;DHT22;11538;48.884;8.696;2022-09-09T03:08:18;17.40;99.90
22742;DHT22;11538;48.884;8.696;2022-09-09T03:10:45;17.40;99.90
22742;DHT22;11538;48.884;8.696;2022-09-09T03:13:12;17.40;99.90
22742;DHT22;11538;48.884;8.696;2022-09-09T03:15:41;17.40;99.90
22742;DHT22;11538;48.884;8.696;2022-09-09T03:18:08;17.30;99.90
22742;DHT22;11538;48.884;8.696;2022-09-09T03:20:35;17.30;99.90
22742;DHT22;11538;48.884;8.696;2022-09-09T03:23:02;17.30;99.90
22742;DHT22;11538;48.884;8.696;2022-09-09T03:25:29;17.20;99.90
22742;DHT22;11538;48.884;8.696;2022-09-09T03:27:56;17.10;99.90
22742;DHT22;11538;48.884;8.696;2022-09-09T03:30:25;17.00;99.90
22742;DHT22;11538;48.884;8.696;2022-09-09T03:32:53;17.00;99.90
22742;DHT22;11538;48.884;8.696;2022-09-09T03:35:21;17.00;99.90
22742;DHT22;11538;48.884;8.696;2022-09-09T03:37:48;16.90;99.90
22742;DHT22;11538;48.884;8.696;2022-09-09T03:40:15;16.90;99.90
22742;DHT22;11538;48.884;8.696;2022-09-09T03:42:42;16.80;99.90
22742;DHT22;11538;48.884;8.696;2022-09-09T03:45:10;16.90;99.90
22742;DHT22;11538;48.884;8.696;2022-09-09T03:47:37;16.90;99.90
22742;DHT22;11538;48.884;8.696;2022-09-09T03:50:05;16.80;99.90
22742;DHT22;11538;48.884;8.696;2022-09-09T03:52:40;16.80;99.90
22742;DHT22;11538;48.884;8.696;2022-09-09T03:55:08;16.80;99.90
22742;DHT22;11538;48.884;8.696;2022-09-09T03:57:35;16.80;99.90
22742;DHT22;11538;48.884;8.696;2022-09-09T04:00:03;16.80;99.90
22742;DHT22;11538;48.884;8.696;2022-09-09T04:02:32;16.80;99.90
22742;DHT22;11538;48.884;8.696;2022-09-09T04:04:59;16.90;99.90
22742;DHT22;11538;48.884;8.696;2022-09-09T04:07:26;16.90;99.90
22742;DHT22;11538;48.884;8.696;2022-09-09T04:09:54;17.00;99.90
22742;DHT22;11538;48.884;8.696;2022-09-09T04:12:22;16.90;99.90
22742;DHT22;11538;48.884;8.696;2022-09-09T04:14:48;17.00;99.90
22742;DHT22;11538;48.884;8.696;2022-09-09T04:17:16;17.00;99.90
22742;DHT22;11538;48.884;8.696;2022-09-09T04:19:43;17.00;99.90
22742;DHT22;11538;48.884;8.696;2022-09-09T04:22:10;17.00;99.90
22742;DHT22;11538;48.884;8.696;2022-09-09T04:24:37;17.00;99.90
22742;DHT22;11538;48.884;8.696;2022-09-09T04:27:04;17.10;99.90
22742;DHT22;11538;48.884;8.696;2022-09-09T04:29:31;17.10;99.90
22742;DHT22;11538;48.884;8.696;2022-09-09T04:31:58;17.10;99.90
22742;DHT22;11538;48.884;8.696;2022-09-09T04:34:25;17.10;99.90
22742;DHT22;11538;48.884;8.696;2022-09-09T04:36:52;17.10;99.90
22742;DHT22;11538;48.884;8.696;2022-09-09T04:39:18;17.10;99.90
22742;DHT22;11538;48.884;8.696;2022-09-09T04:41:46;17.20;99.90
22742;DHT22;11538;48.884;8.696;2022-09-09T04:44:13;17.10;99.90
22742;DHT22;11538;48.884;8.696;2022-09-09T04:46:40;17.10;99.90
22742;DHT22;11538;48.884;8.696;2022-09-09T04:49:07;17.10;99.90
22742;DHT22;11538;48.884;8.696;2022-09-09T04:51:40;17.10;99.90
22742;DHT22;11538;48.884;8.696;2022-09-09T04:54:07;17.10;99.90
22742;DHT22;11538;48.884;8.696;2022-09-09T04:56:34;17.00;99.90
22742;DHT22;11538;48.884;8.696;2022-09-09T04:59:01;17.00;99.90
22742;DHT22;11538;48.884;8.696;2022-09-09T05:01:29;16.90;99.90
22742;DHT22;11538;48.884;8.696;2022-09-09T05:03:56;16.80;99.90
22742;DHT22;11538;48.884;8.696;2022-09-09T05:06:23;16.80;99.90
22742;DHT22;11538;48.884;8.696;2022-09-09T05:08:50;16.70;99.90
22742;DHT22;11538;48.884;8.696;2022-09-09T05:11:20;16.70;99.90
22742;DHT22;11538;48.884;8.696;2022-09-09T05:13:50;16.70;99.90
22742;DHT22;11538;48.884;8.696;2022-09-09T05:16:19;16.70;99.90
22742;DHT22;11538;48.884;8.696;2022-09-09T05:18:47;16.60;99.90
22742;DHT22;11538;48.884;8.696;2022-09-09T05:21:16;16.50;99.90
22742;DHT22;11538;48.884;8.696;2022-09-09T05:23:45;16.50;99.90
22742;DHT22;11538;48.884;8.696;2022-09-09T05:26:15;16.50;99.90
22742;DHT22;11538;48.884;8.696;2022-09-09T05:28:44;16.50;99.90
22742;DHT22;11538;48.884;8.696;2022-09-09T05:31:12;16.50;99.90
22742;DHT22;11538;48.884;8.696;2022-09-09T05:33:42;16.50;99.90
22742;DHT22;11538;48.884;8.696;2022-09-09T05:36:14;16.60;99.90
22742;DHT22;11538;48.884;8.696;2022-09-09T05:38:43;16.70;99.90
22742;DHT22;11538;48.884;8.696;2022-09-09T05:41:11;16.70;99.90
22742;DHT22;11538;48.884;8.696;2022-09-09T05:43:42;16.70;99.90
22742;DHT22;11538;48.884;8.696;2022-09-09T05:46:21;16.70;99.90
22742;DHT22;11538;48.884;8.696;2022-09-09T05:48:52;16.70;99.90
22742;DHT22;11538;48.884;8.696;2022-09-09T05:51:25;16.70;99.90
22742;DHT22;11538;48.884;8.696;2022-09-09T05:53:54;16.70;99.90
22742;DHT22;11538;48.884;8.696;2022-09-09T05:56:24;16.70;99.90
22742;DHT22;11538;48.884;8.696;2022-09-09T05:58:54;16.70;99.90
22742;DHT22;11538;48.884;8.696;2022-09-09T06:03:54;16.80;99.90
22742;DHT22;11538;48.884;8.696;2022-09-09T06:06:29;16.80;99.90
22742;DHT22;11538;48.884;8.696;2022-09-09T06:08:58;16.80;99.90
22742;DHT22;11538;48.884;8.696;2022-09-09T06:11:27;16.70;99.90
22742;DHT22;11538;48.884;8.696;2022-09-09T06:13:57;16.80;99.90
22742;DHT22;11538;48.884;8.696;2022-09-09T06:16:28;16.80;99.90
22742;DHT22;11538;48.884;8.696;2022-09-09T06:18:56;16.90;99.90
22742;DHT22;11538;48.884;8.696;2022-09-09T06:23:57;17.00;99.90
22742;DHT22;11538;48.884;8.696;2022-09-09T06:26:32;17.00;99.90
22742;DHT22;11538;48.884;8.696;2022-09-09T06:29:01;17.00;99.90
22742;DHT22;11538;48.884;8.696;2022-09-09T06:31:32;17.10;99.90
22742;DHT22;11538;48.884;8.696;2022-09-09T06:34:01;17.10;99.90
22742;DHT22;11538;48.884;8.696;2022-09-09T06:36:35;17.20;99.90
22742;DHT22;11538;48.884;8.696;2022-09-09T06:39:04;17.40;99.90
22742;DHT22;11538;48.884;8.696;2022-09-09T06:41:39;17.50;99.90
22742;DHT22;11538;48.884;8.696;2022-09-09T06:44:06;17.60;99.90
22742;DHT22;11538;48.884;8.696;2022-09-09T06:46:33;17.70;99.90
22742;DHT22;11538;48.884;8.696;2022-09-09T06:49:00;17.70;99.90
22742;DHT22;11538;48.884;8.696;2022-09-09T06:51:29;17.90;99.90
22742;DHT22;11538;48.884;8.696;2022-09-09T06:53:59;17.90;99.90
22742;DHT22;11538;48.884;8.696;2022-09-09T06:56:30;18.00;99.90
22742;DHT22;11538;48.884;8.696;2022-09-09T06:59:03;18.00;99.90
22742;DHT22;11538;48.884;8.696;2022-09-09T07:01:34;18.00;99.90
22742;DHT22;11538;48.884;8.696;2022-09-09T07:04:03;18.10;99.90
22742;DHT22;11538;48.884;8.696;2022-09-09T07:06:36;18.10;99.90
22742;DHT22;11538;48.884;8.696;2022-09-09T07:09:07;18.20;99.90
22742;DHT22;11538;48.884;8.696;2022-09-09T07:11:44;18.30;99.90
22742;DHT22;11538;48.884;8.696;2022-09-09T07:14:13;18.40;99.90
22742;DHT22;11538;48.884;8.696;2022-09-09T07:16:44;18.40;99.90
22742;DHT22;11538;48.884;8.696;2022-09-09T07:19:12;18.50;99.90
22742;DHT22;11538;48.884;8.696;2022-09-09T07:21:41;18.60;99.90
22742;DHT22;11538;48.884;8.696;2022-09-09T07:24:10;18.70;99.90
22742;DHT22;11538;48.884;8.696;2022-09-09T07:26:39;18.70;99.90
22742;DHT22;11538;48.884;8.696;2022-09-09T07:29:08;18.80;99.90
22742;DHT22;11538;48.884;8.696;2022-09-09T07:31:37;18.80;99.90
22742;DHT22;11538;48.884;8.696;2022-09-09T07:34:06;18.90;99.90
22742;DHT22;11538;48.884;8.696;2022-09-09T07:36:36;19.00;99.90
22742;DHT22;11538;48.884;8.696;2022-09-09T07:39:07;19.00;99.90
22742;DHT22;11538;48.884;8.696;2022-09-09T07:41:44;19.10;99.90
22742;DHT22;11538;48.884;8.696;2022-09-09T07:44:15;19.10;99.90
22742;DHT22;11538;48.884;8.696;2022-09-09T07:46:44;19.20;99.90
22742;DHT22;11538;48.884;8.696;2022-09-09T07:49:12;19.30;99.90
22742;DHT22;11538;48.884;8.696;2022-09-09T07:51:45;19.40;99.90
22742;DHT22;11538;48.884;8.696;2022-09-09T07:54:16;19.50;99.90
22742;DHT22;11538;48.884;8.696;2022-09-09T07:56:46;19.70;99.90
22742;DHT22;11538;48.884;8.696;2022-09-09T07:59:13;19.90;99.90
22742;DHT22;11538;48.884;8.696;2022-09-09T08:01:46;20.10;99.90
22742;DHT22;11538;48.884;8.696;2022-09-09T08:04:17;20.30;99.90
22742;DHT22;11538;48.884;8.696;2022-09-09T08:06:50;20.60;99.90
22742;DHT22;11538;48.884;8.696;2022-09-09T08:09:20;20.80;99.90
22742;DHT22;11538;48.884;8.696;2022-09-09T08:11:48;21.00;99.90
22742;DHT22;11538;48.884;8.696;2022-09-09T08:14:14;21.20;99.90
22742;DHT22;11538;48.884;8.696;2022-09-09T08:16:45;21.30;99.90
22742;DHT22;11538;48.884;8.696;2022-09-09T08:19:14;21.30;99.90
22742;DHT22;11538;48.884;8.696;2022-09-09T08:21:45;21.30;99.90
22742;DHT22;11538;48.884;8.696;2022-09-09T08:24:13;21.20;99.90
22742;DHT22;11538;48.884;8.696;2022-09-09T08:26:44;21.20;99.90
22742;DHT22;11538;48.884;8.696;2022-09-09T08:29:14;21.40;99.90
22742;DHT22;11538;48.884;8.696;2022-09-09T08:31:47;21.50;99.90
22742;DHT22;11538;48.884;8.696;2022-09-09T08:34:21;21.70;99.90
22742;DHT22;11538;48.884;8.696;2022-09-09T08:36:50;22.00;99.90
22742;DHT22;11538;48.884;8.696;2022-09-09T08:39:19;22.20;99.90
22742;DHT22;11538;48.884;8.696;2022-09-09T08:48:01;22.90;99.90
22742;DHT22;11538;48.884;8.696;2022-09-09T08:50:39;23.00;99.90
22742;DHT22;11538;48.884;8.696;2022-09-09T08:55:54;23.00;99.90
22742;DHT22;11538;48.884;8.696;2022-09-09T08:58:31;23.00;99.90
22742;DHT22;11538;48.884;8.696;2022-09-09T09:04:19;23.10;99.90
22742;DHT22;11538;48.884;8.696;2022-09-09T09:07:35;23.20;99.90
22742;DHT22;11538;48.884;8.696;2022-09-09T09:10:47;23.40;99.90
22742;DHT22;11538;48.884;8.696;2022-09-09T09:17:03;23.40;99.90
22742;DHT22;11538;48.884;8.696;2022-09-09T09:19:29;23.30;99.90
22742;DHT22;11538;48.884;8.696;2022-09-09T09:29:58;22.70;99.90
22742;DHT22;11538;48.884;8.696;2022-09-09T09:32:57;22.60;99.90
22742;DHT22;11538;48.884;8.696;2022-09-09T09:35:27;22.40;99.90
22742;DHT22;11538;48.884;8.696;2022-09-09T09:37:55;22.30;99.90
22742;DHT22;11538;48.884;8.696;2022-09-09T09:40:58;22.10;99.90
22742;DHT22;11538;48.884;8.696;2022-09-09T09:43:30;22.00;99.90
22742;DHT22;11538;48.884;8.696;2022-09-09T09:46:16;22.20;99.90
22742;DHT22;11538;48.884;8.696;2022-09-09T09:49:00;22.50;99.90
22742;DHT22;11538;48.884;8.696;2022-09-09T09:51:30;22.90;99.90
22742;DHT22;11538;48.884;8.696;2022-09-09T09:54:27;23.30;99.90
22742;DHT22;11538;48.884;8.696;2022-09-09T09:56:56;23.70;99.90
22742;DHT22;11538;48.884;8.696;2022-09-09T09:59:36;24.10;99.90
22742;DHT22;11538;48.884;8.696;2022-09-09T10:02:31;24.20;99.90
22742;DHT22;11538;48.884;8.696;2022-09-09T10:05:08;24.10;99.90
22742;DHT22;11538;48.884;8.696;2022-09-09T10:07:40;24.10;99.90
22742;DHT22;11538;48.884;8.696;2022-09-09T10:10:13;24.30;99.90
22742;DHT22;11538;48.884;8.696;2022-09-09T10:12:56;24.40;99.90
22742;DHT22;11538;48.884;8.696;2022-09-09T10:16:03;24.50;99.90
22742;DHT22;11538;48.884;8.696;2022-09-09T10:19:15;24.80;99.90
22742;DHT22;11538;48.884;8.696;2022-09-09T10:22:05;24.90;99.90
22742;DHT22;11538;48.884;8.696;2022-09-09T10:33:09;23.60;99.90
22742;DHT22;11538;48.884;8.696;2022-09-09T10:36:07;23.30;99.90
22742;DHT22;11538;48.884;8.696;2022-09-09T10:38:45;22.90;99.90
22742;DHT22;11538;48.884;8.696;2022-09-09T10:41:20;22.70;99.90
22742;DHT22;11538;48.884;8.696;2022-09-09T10:44:02;22.50;99.90
22742;DHT22;11538;48.884;8.696;2022-09-09T10:46:48;22.30;99.90
22742;DHT22;11538;48.884;8.696;2022-09-09T10:49:51;22.10;99.90
22742;DHT22;11538;48.884;8.696;2022-09-09T10:52:59;21.80;99.90
22742;DHT22;11538;48.884;8.696;2022-09-09T10:56:10;21.70;99.90
22742;DHT22;11538;48.884;8.696;2022-09-09T10:58:50;21.50;99.90
22742;DHT22;11538;48.884;8.696;2022-09-09T11:04:18;21.10;99.90
22742;DHT22;11538;48.884;8.696;2022-09-09T11:06:49;21.00;99.90
22742;DHT22;11538;48.884;8.696;2022-09-09T11:09:32;20.90;99.90
22742;DHT22;11538;48.884;8.696;2022-09-09T11:12:10;20.80;99.90
22742;DHT22;11538;48.884;8.696;2022-09-09T11:14:55;20.60;99.90
22742;DHT22;11538;48.884;8.696;2022-09-09T11:17:40;20.40;99.90
22742;DHT22;11538;48.884;8.696;2022-09-09T11:20:14;20.30;99.90
22742;DHT22;11538;48.884;8.696;2022-09-09T11:25:38;20.00;99.90
22742;DHT22;11538;48.884;8.696;2022-09-09T11:28:28;19.90;99.90
22742;DHT22;11538;48.884;8.696;2022-09-09T11:31:44;19.90;99.90
22742;DHT22;11538;48.884;8.696;2022-09-09T11:37:19;19.90;99.90
22742;DHT22;11538;48.884;8.696;2022-09-09T11:40:28;20.00;99.90
22742;DHT22;11538;48.884;8.696;2022-09-09T11:45:41;20.10;99.90
22742;DHT22;11538;48.884;8.696;2022-09-09T11:49:22;20.20;99.90
22742;DHT22;11538;48.884;8.696;2022-09-09T11:51:28;20.40;99.90
22742;DHT22;11538;48.884;8.696;2022-09-09T11:54:28;20.80;99.90
22742;DHT22;11538;48.884;8.696;2022-09-09T11:57:02;21.50;99.90
22742;DHT22;11538;48.884;8.696;2022-09-09T11:59:32;22.20;99.90
22742;DHT22;11538;48.884;8.696;2022-09-09T12:02:23;22.90;99.90
22742;DHT22;11538;48.884;8.696;2022-09-09T12:07:41;24.40;99.90
22742;DHT22;11538;48.884;8.696;2022-09-09T12:10:29;25.00;99.90
22742;DHT22;11538;48.884;8.696;2022-09-09T12:13:23;25.50;99.90
22742;DHT22;11538;48.884;8.696;2022-09-09T12:15:53;26.00;99.90
22742;DHT22;11538;48.884;8.696;2022-09-09T12:18:36;26.60;99.90
22742;DHT22;11538;48.884;8.696;2022-09-09T12:24:29;27.30;99.90
22742;DHT22;11538;48.884;8.696;2022-09-09T12:27:20;27.60;99.90
22742;DHT22;11538;48.884;8.696;2022-09-09T12:30:04;28.20;99.90
22742;DHT22;11538;48.884;8.696;2022-09-09T12:32:36;28.50;99.90
22742;DHT22;11538;48.884;8.696;2022-09-09T12:35:20;28.80;99.90
22742;DHT22;11538;48.884;8.696;2022-09-09T12:37:57;28.70;99.90
22742;DHT22;11538;48.884;8.696;2022-09-09T12:40:33;28.60;99.90
22742;DHT22;11538;48.884;8.696;2022-09-09T12:43:21;28.20;99.90
22742;DHT22;11538;48.884;8.696;2022-09-09T12:45:51;28.00;99.90
22742;DHT22;11538;48.884;8.696;2022-09-09T12:48:36;27.70;99.90
22742;DHT22;11538;48.884;8.696;2022-09-09T12:51:34;27.30;99.90
22742;DHT22;11538;48.884;8.696;2022-09-09T12:54:03;27.30;99.90
22742;DHT22;11538;48.884;8.696;2022-09-09T12:56:32;27.50;99.90
22742;DHT22;11538;48.884;8.696;2022-09-09T12:58:59;27.60;99.90
22742;DHT22;11538;48.884;8.696;2022-09-09T13:01:30;27.40;99.90
22742;DHT22;11538;48.884;8.696;2022-09-09T13:03:59;27.20;99.90
22742;DHT22;11538;48.884;8.696;2022-09-09T13:06:31;26.90;99.90
22742;DHT22;11538;48.884;8.696;2022-09-09T13:09:01;26.60;99.90
22742;DHT22;11538;48.884;8.696;2022-09-09T13:14:29;26.00;99.90
22742;DHT22;11538;48.884;8.696;2022-09-09T13:17:00;25.70;99.90
22742;DHT22;11538;48.884;8.696;2022-09-09T13:19:35;25.90;99.90
22742;DHT22;11538;48.884;8.696;2022-09-09T13:22:20;26.40;99.90
22742;DHT22;11538;48.884;8.696;2022-09-09T13:27:39;27.00;99.90
22742;DHT22;11538;48.884;8.696;2022-09-09T13:30:25;27.40;99.90
22742;DHT22;11538;48.884;8.696;2022-09-09T13:35:54;27.50;99.90
22742;DHT22;11538;48.884;8.696;2022-09-09T13:38:25;27.40;99.90
22742;DHT22;11538;48.884;8.696;2022-09-09T13:41:05;27.20;99.90
22742;DHT22;11538;48.884;8.696;2022-09-09T13:43:43;26.70;99.90
22742;DHT22;11538;48.884;8.696;2022-09-09T13:46:28;26.20;99.90
22742;DHT22;11538;48.884;8.696;2022-09-09T13:51:41;25.40;99.90
22742;DHT22;11538;48.884;8.696;2022-09-09T13:54:14;25.20;99.90
22742;DHT22;11538;48.884;8.696;2022-09-09T13:56:43;24.90;99.90
22742;DHT22;11538;48.884;8.696;2022-09-09T13:59:13;24.60;99.90
22742;DHT22;11538;48.884;8.696;2022-09-09T14:01:42;24.40;99.90
22742;DHT22;11538;48.884;8.696;2022-09-09T14:04:10;24.20;99.90
22742;DHT22;11538;48.884;8.696;2022-09-09T14:06:38;24.10;99.90
22742;DHT22;11538;48.884;8.696;2022-09-09T14:09:08;24.00;99.90
22742;DHT22;11538;48.884;8.696;2022-09-09T14:11:38;23.80;99.90
22742;DHT22;11538;48.884;8.696;2022-09-09T14:14:05;23.80;99.90
22742;DHT22;11538;48.884;8.696;2022-09-09T14:16:33;23.80;99.90
22742;DHT22;11538;48.884;8.696;2022-09-09T14:19:00;23.80;99.90
22742;DHT22;11538;48.884;8.696;2022-09-09T14:21:28;24.20;99.90
22742;DHT22;11538;48.884;8.696;2022-09-09T14:23:55;24.40;99.90
22742;DHT22;11538;48.884;8.696;2022-09-09T14:26:24;24.60;99.90
22742;DHT22;11538;48.884;8.696;2022-09-09T14:28:52;24.60;99.90
22742;DHT22;11538;48.884;8.696;2022-09-09T14:31:22;24.50;99.90
22742;DHT22;11538;48.884;8.696;2022-09-09T14:33:50;24.40;99.90
22742;DHT22;11538;48.884;8.696;2022-09-09T14:36:17;24.40;99.90
22742;DHT22;11538;48.884;8.696;2022-09-09T14:38:45;24.40;99.90
22742;DHT22;11538;48.884;8.696;2022-09-09T14:41:14;24.40;99.90
22742;DHT22;11538;48.884;8.696;2022-09-09T14:43:44;24.50;99.90
22742;DHT22;11538;48.884;8.696;2022-09-09T14:46:13;24.80;99.90
22742;DHT22;11538;48.884;8.696;2022-09-09T14:48:42;25.30;99.90
22742;DHT22;11538;48.884;8.696;2022-09-09T14:51:16;25.70;99.90
22742;DHT22;11538;48.884;8.696;2022-09-09T14:53:44;25.80;99.90
22742;DHT22;11538;48.884;8.696;2022-09-09T14:56:17;25.70;99.90
22742;DHT22;11538;48.884;8.696;2022-09-09T14:58:47;25.60;99.90
22742;DHT22;11538;48.884;8.696;2022-09-09T15:01:17;25.40;99.90
22742;DHT22;11538;48.884;8.696;2022-09-09T15:03:53;25.30;99.90
22742;DHT22;11538;48.884;8.696;2022-09-09T15:06:29;25.10;99.90
22742;DHT22;11538;48.884;8.696;2022-09-09T15:09:00;25.00;99.90
22742;DHT22;11538;48.884;8.696;2022-09-09T15:11:33;24.90;99.90
22742;DHT22;11538;48.884;8.696;2022-09-09T15:14:05;24.80;99.90
22742;DHT22;11538;48.884;8.696;2022-09-09T15:16:34;24.70;99.90
22742;DHT22;11538;48.884;8.696;2022-09-09T15:19:03;24.50;99.90
22742;DHT22;11538;48.884;8.696;2022-09-09T15:21:32;24.40;99.90
22742;DHT22;11538;48.884;8.696;2022-09-09T15:24:01;24.20;99.90
22742;DHT22;11538;48.884;8.696;2022-09-09T15:26:28;24.00;99.90
22742;DHT22;11538;48.884;8.696;2022-09-09T15:28:56;23.80;99.90
22742;DHT22;11538;48.884;8.696;2022-09-09T15:31:30;23.70;99.90
22742;DHT22;11538;48.884;8.696;2022-09-09T15:33:59;23.50;99.90
22742;DHT22;11538;48.884;8.696;2022-09-09T15:39:08;23.20;99.90
22742;DHT22;11538;48.884;8.696;2022-09-09T15:41:39;23.10;99.90
22742;DHT22;11538;48.884;8.696;2022-09-09T15:44:07;22.90;99.90
22742;DHT22;11538;48.884;8.696;2022-09-09T15:51:45;22.20;99.90
22742;DHT22;11538;48.884;8.696;2022-09-09T15:54:16;21.90;99.90
22742;DHT22;11538;48.884;8.696;2022-09-09T15:56:46;21.60;99.90
22742;DHT22;11538;48.884;8.696;2022-09-09T15:59:16;21.30;99.90
22742;DHT22;11538;48.884;8.696;2022-09-09T16:01:43;20.80;99.90
22742;DHT22;11538;48.884;8.696;2022-09-09T16:04:12;20.40;99.90
22742;DHT22;11538;48.884;8.696;2022-09-09T16:06:38;20.00;99.90
22742;DHT22;11538;48.884;8.696;2022-09-09T16:09:07;19.60;99.90
22742;DHT22;11538;48.884;8.696;2022-09-09T16:11:36;19.40;99.90
22742;DHT22;11538;48.884;8.696;2022-09-09T16:14:05;19.20;99.90
22742;DHT22;11538;48.884;8.696;2022-09-09T16:16:34;19.10;99.90
22742;DHT22;11538;48.884;8.696;2022-09-09T16:19:07;19.00;99.90
22742;DHT22;11538;48.884;8.696;2022-09-09T16:21:41;18.90;99.90
22742;DHT22;11538;48.884;8.696;2022-09-09T16:24:13;18.90;99.90
22742;DHT22;11538;48.884;8.696;2022-09-09T16:26:44;18.90;99.90
22742;DHT22;11538;48.884;8.696;2022-09-09T16:29:13;18.90;99.90
22742;DHT22;11538;48.884;8.696;2022-09-09T16:31:41;19.00;99.90
22742;DHT22;11538;48.884;8.696;2022-09-09T16:34:09;19.10;99.90
22742;DHT22;11538;48.884;8.696;2022-09-09T16:36:38;19.10;99.90
22742;DHT22;11538;48.884;8.696;2022-09-09T16:39:09;19.10;99.90
22742;DHT22;11538;48.884;8.696;2022-09-09T16:41:43;19.10;99.90
22742;DHT22;11538;48.884;8.696;2022-09-09T16:44:12;19.10;99.90
22742;DHT22;11538;48.884;8.696;2022-09-09T16:46:43;19.10;99.90
22742;DHT22;11538;48.884;8.696;2022-09-09T16:49:12;19.10;99.90
22742;DHT22;11538;48.884;8.696;2022-09-09T16:51:49;19.00;99.90
22742;DHT22;11538;48.884;8.696;2022-09-09T16:54:20;19.10;99.90
22742;DHT22;11538;48.884;8.696;2022-09-09T16:56:48;19.10;99.90
22742;DHT22;11538;48.884;8.696;2022-09-09T16:59:20;19.00;99.90
22742;DHT22;11538;48.884;8.696;2022-09-09T17:01:49;19.00;99.90
22742;DHT22;11538;48.884;8.696;2022-09-09T17:04:23;19.00;99.90
22742;DHT22;11538;48.884;8.696;2022-09-09T17:06:54;19.10;99.90
22742;DHT22;11538;48.884;8.696;2022-09-09T17:09:25;19.10;99.90
22742;DHT22;11538;48.884;8.696;2022-09-09T17:11:56;19.10;99.90
22742;DHT22;11538;48.884;8.696;2022-09-09T17:14:23;19.00;99.90
22742;DHT22;11538;48.884;8.696;2022-09-09T17:16:50;19.00;99.90
22742;DHT22;11538;48.884;8.696;2022-09-09T17:19:17;19.00;99.90
22742;DHT22;11538;48.884;8.696;2022-09-09T17:21:45;18.90;99.90
22742;DHT22;11538;48.884;8.696;2022-09-09T17:24:33;18.90;99.90
22742;DHT22;11538;48.884;8.696;2022-09-09T17:27:01;18.80;99.90
22742;DHT22;11538;48.884;8.696;2022-09-09T17:29:28;18.80;99.90
22742;DHT22;11538;48.884;8.696;2022-09-09T17:31:55;18.80;99.90
22742;DHT22;11538;48.884;8.696;2022-09-09T17:34:22;18.70;99.90
22742;DHT22;11538;48.884;8.696;2022-09-09T17:36:50;18.70;99.90
22742;DHT22;11538;48.884;8.696;2022-09-09T17:39:18;18.70;99.90
22742;DHT22;11538;48.884;8.696;2022-09-09T17:41:45;18.70;99.90
22742;DHT22;11538;48.884;8.696;2022-09-09T17:44:12;18.70;99.90
22742;DHT22;11538;48.884;8.696;2022-09-09T17:46:40;18.60;99.90
22742;DHT22;11538;48.884;8.696;2022-09-09T17:49:14;18.60;99.90